createdAt,value
2022-11-27T00:01:01.104Z,100.00
2022-11-27T00:03:28.372Z,100.00
2022-11-27T00:05:58.237Z,100.00
2022-11-27T00:08:25.602Z,100.00
2022-11-27T00:10:52.194Z,100.00
2022-11-27T00:13:18.856Z,100.00
2022-11-27T00:15:45.690Z,100.00
2022-11-27T00:18:12.723Z,100.00
2022-11-27T00:20:39.565Z,100.00
2022-11-27T00:23:06.230Z,100.00
2022-11-27T00:25:32.781Z,100.00
2022-11-27T00:27:59.457Z,100.00
2022-11-27T00:30:25.996Z,100.00
2022-11-27T00:32:52.594Z,100.00
2022-11-27T00:35:19.153Z,100.00
2022-11-27T00:37:45.779Z,100.00
2022-11-27T00:40:12.629Z,100.00
2022-11-27T00:42:39.232Z,100.00
2022-11-27T00:45:06.105Z,100.00
2022-11-27T00:47:32.697Z,100.00
2022-11-27T00:49:59.222Z,100.00
2022-11-27T00:52:25.802Z,100.00
2022-11-27T00:54:52.419Z,100.00
2022-11-27T00:57:19.021Z,100.00
2022-11-27T00:59:45.671Z,100.00
2022-11-27T01:02:12.286Z,100.00
2022-11-27T01:04:39.146Z,100.00
2022-11-27T01:07:05.858Z,100.00
2022-11-27T01:09:32.611Z,100.00
2022-11-27T01:11:59.194Z,100.00
2022-11-27T01:14:25.737Z,100.00
2022-11-27T01:16:52.325Z,100.00
2022-11-27T01:19:19.519Z,100.00
2022-11-27T01:21:46.485Z,100.00
2022-11-27T01:24:14.943Z,100.00
2022-11-27T01:26:42.824Z,100.00
2022-11-27T01:29:09.508Z,100.00
2022-11-27T01:31:36.596Z,100.00
2022-11-27T01:34:12.735Z,100.00
2022-11-27T01:36:39.387Z,100.00
2022-11-27T01:39:05.959Z,100.00
2022-11-27T01:41:36.401Z,100.00
2022-11-27T01:44:24.895Z,100.00
2022-11-27T01:47:20.996Z,100.00
2022-11-27T01:49:54.044Z,100.00
2022-11-27T01:52:26.748Z,100.00
2022-11-27T01:55:26.039Z,100.00
2022-11-27T01:57:59.312Z,100.00
2022-11-27T02:00:26.261Z,100.00
2022-11-27T02:02:52.965Z,100.00
2022-11-27T02:05:23.432Z,100.00
2022-11-27T02:07:51.114Z,100.00
2022-11-27T02:10:18.360Z,100.00
2022-11-27T02:13:14.668Z,100.00
2022-11-27T02:15:41.166Z,100.00
2022-11-27T02:18:45.477Z,100.00
2022-11-27T02:21:42.993Z,100.00
2022-11-27T02:24:38.227Z,100.00
2022-11-27T02:27:12.000Z,100.00
2022-11-27T02:29:40.969Z,100.00
2022-11-27T02:32:12.980Z,100.00
2022-11-27T02:34:45.420Z,100.00
2022-11-27T02:37:36.553Z,100.00
2022-11-27T02:40:07.853Z,100.00
2022-11-27T02:42:43.621Z,100.00
2022-11-27T02:45:14.874Z,100.00
2022-11-27T02:47:44.917Z,100.00
2022-11-27T02:50:17.343Z,100.00
2022-11-27T02:52:45.964Z,100.00
2022-11-27T02:55:17.233Z,100.00
2022-11-27T02:57:45.693Z,100.00
2022-11-27T03:00:13.078Z,100.00
2022-11-27T03:02:44.476Z,100.00
2022-11-27T03:05:15.279Z,100.00
2022-11-27T03:07:49.848Z,100.00
2022-11-27T03:10:21.855Z,100.00
2022-11-27T03:12:49.112Z,100.00
2022-11-27T03:15:16.069Z,100.00
2022-11-27T03:18:17.015Z,100.00
2022-11-27T03:20:49.193Z,100.00
2022-11-27T03:23:15.855Z,100.00
2022-11-27T03:25:42.465Z,100.00
2022-11-27T03:28:12.362Z,100.00
2022-11-27T03:30:40.658Z,100.00
2022-11-27T03:33:25.168Z,100.00
2022-11-27T03:35:52.707Z,100.00
2022-11-27T03:38:19.394Z,100.00
2022-11-27T03:40:58.021Z,100.00
2022-11-27T03:43:29.845Z,100.00
2022-11-27T03:46:01.536Z,100.00
2022-11-27T03:48:43.428Z,100.00
2022-11-27T03:51:37.178Z,100.00
2022-11-27T03:54:13.263Z,100.00
2022-11-27T03:56:53.458Z,100.00
2022-11-27T03:59:25.516Z,100.00
2022-11-27T04:01:52.287Z,100.00
2022-11-27T04:04:18.981Z,100.00
2022-11-27T04:06:45.613Z,100.00
2022-11-27T04:09:12.217Z,100.00
2022-11-27T04:11:38.786Z,100.00
2022-11-27T04:14:06.128Z,100.00
2022-11-27T04:16:32.810Z,100.00
2022-11-27T04:18:59.416Z,100.00
2022-11-27T04:21:26.098Z,100.00
2022-11-27T04:23:52.658Z,100.00
2022-11-27T04:26:19.253Z,100.00
2022-11-27T04:28:45.836Z,100.00
2022-11-27T04:31:12.487Z,100.00
2022-11-27T04:33:39.116Z,100.00
2022-11-27T04:36:06.105Z,100.00
2022-11-27T04:38:32.705Z,100.00
2022-11-27T04:40:59.431Z,100.00
2022-11-27T04:43:26.005Z,100.00
2022-11-27T04:45:52.635Z,100.00
2022-11-27T04:48:19.301Z,100.00
2022-11-27T04:50:45.982Z,100.00
2022-11-27T04:53:12.622Z,100.00
2022-11-27T04:55:39.329Z,100.00
2022-11-27T04:58:05.887Z,100.00
2022-11-27T05:00:32.571Z,100.00
2022-11-27T05:02:59.403Z,100.00
2022-11-27T05:05:26.106Z,100.00
2022-11-27T05:07:54.274Z,100.00
2022-11-27T05:10:20.885Z,100.00
2022-11-27T05:12:47.512Z,100.00
2022-11-27T05:15:14.120Z,100.00
2022-11-27T05:17:40.705Z,100.00
2022-11-27T05:20:07.965Z,100.00
2022-11-27T05:22:34.607Z,100.00
2022-11-27T05:25:01.878Z,100.00
2022-11-27T05:27:28.550Z,100.00
2022-11-27T05:29:55.268Z,100.00
2022-11-27T05:32:21.846Z,100.00
2022-11-27T05:34:49.766Z,100.00
2022-11-27T05:37:19.786Z,100.00
2022-11-27T05:39:46.987Z,100.00
2022-11-27T05:42:13.549Z,100.00
2022-11-27T05:44:40.450Z,100.00
2022-11-27T05:47:07.272Z,100.00
2022-11-27T05:49:34.057Z,100.00
2022-11-27T05:52:00.607Z,100.00
2022-11-27T05:54:27.218Z,100.00
2022-11-27T05:56:53.832Z,100.00
2022-11-27T05:59:20.387Z,100.00
2022-11-27T06:01:49.323Z,100.00
2022-11-27T06:04:16.172Z,100.00
2022-11-27T06:06:42.925Z,100.00
2022-11-27T06:09:13.159Z,100.00
2022-11-27T06:11:40.830Z,100.00
2022-11-27T06:14:08.951Z,100.00
2022-11-27T06:16:35.952Z,100.00
2022-11-27T06:19:02.917Z,100.00
2022-11-27T06:21:29.485Z,100.00
2022-11-27T06:23:56.865Z,100.00
2022-11-27T06:26:29.520Z,100.00
2022-11-27T06:28:57.717Z,100.00
2022-11-27T06:31:30.623Z,100.00
2022-11-27T06:33:57.703Z,100.00
2022-11-27T06:36:31.510Z,100.00
2022-11-27T06:38:58.207Z,100.00
2022-11-27T06:41:27.232Z,100.00
2022-11-27T06:43:55.099Z,100.00
2022-11-27T06:46:23.390Z,100.00
2022-11-27T06:48:52.378Z,100.00
2022-11-27T06:51:21.788Z,100.00
2022-11-27T06:53:48.826Z,100.00
2022-11-27T06:56:21.632Z,100.00
2022-11-27T06:58:54.942Z,100.00
2022-11-27T07:01:23.074Z,100.00
2022-11-27T07:03:49.706Z,100.00
2022-11-27T07:06:21.894Z,100.00
2022-11-27T07:08:48.580Z,100.00
2022-11-27T07:11:18.449Z,100.00
2022-11-27T07:13:49.468Z,100.00
2022-11-27T07:16:16.948Z,100.00
2022-11-27T07:18:46.882Z,100.00
2022-11-27T07:21:14.077Z,100.00
2022-11-27T07:23:41.003Z,100.00
2022-11-27T07:26:19.632Z,100.00
2022-11-27T07:28:46.927Z,100.00
2022-11-27T07:31:17.047Z,100.00
2022-11-27T07:33:43.936Z,100.00
2022-11-27T07:36:22.404Z,100.00
2022-11-27T07:38:49.593Z,100.00
2022-11-27T07:41:17.152Z,100.00
2022-11-27T07:43:45.443Z,100.00
2022-11-27T07:46:20.871Z,100.00
2022-11-27T07:48:47.591Z,100.00
2022-11-27T07:51:16.791Z,100.00
2022-11-27T07:53:43.917Z,100.00
2022-11-27T07:56:14.723Z,100.00
2022-11-27T07:58:41.427Z,100.00
2022-11-27T08:01:10.035Z,100.00
2022-11-27T08:03:37.965Z,100.00
2022-11-27T08:06:05.274Z,100.00
2022-11-27T08:08:33.446Z,100.00
2022-11-27T08:10:59.995Z,100.00
2022-11-27T08:13:26.632Z,100.00
2022-11-27T08:15:53.321Z,100.00
2022-11-27T08:18:19.923Z,100.00
2022-11-27T08:20:46.588Z,100.00
2022-11-27T08:23:13.193Z,100.00
2022-11-27T08:25:39.887Z,100.00
2022-11-27T08:28:06.516Z,100.00
2022-11-27T08:30:33.152Z,100.00
2022-11-27T08:32:59.725Z,100.00
2022-11-27T08:35:26.380Z,100.00
2022-11-27T08:37:53.136Z,100.00
2022-11-27T08:40:19.888Z,100.00
2022-11-27T08:42:46.508Z,100.00
2022-11-27T08:45:13.236Z,100.00
2022-11-27T08:47:39.980Z,100.00
2022-11-27T08:50:07.338Z,100.00
2022-11-27T08:52:33.993Z,100.00
2022-11-27T08:55:00.625Z,100.00
2022-11-27T08:57:27.223Z,100.00
2022-11-27T08:59:53.870Z,100.00
2022-11-27T09:02:20.540Z,100.00
2022-11-27T09:04:47.181Z,100.00
2022-11-27T09:07:15.553Z,98.19
2022-11-27T09:09:42.229Z,97.10
2022-11-27T09:12:08.806Z,95.78
2022-11-27T09:14:35.419Z,92.34
2022-11-27T09:17:02.201Z,89.36
2022-11-27T09:19:28.968Z,91.20
2022-11-27T09:21:56.340Z,90.54
2022-11-27T09:24:23.015Z,89.18
2022-11-27T09:26:49.593Z,90.03
2022-11-27T09:29:16.212Z,91.55
2022-11-27T09:31:42.849Z,91.16
2022-11-27T09:34:09.578Z,91.73
2022-11-27T09:36:36.480Z,91.17
2022-11-27T09:39:03.903Z,88.60
2022-11-27T09:41:42.573Z,89.73
2022-11-27T09:44:23.710Z,89.14
2022-11-27T09:46:51.361Z,86.79
2022-11-27T09:49:35.454Z,85.55
2022-11-27T09:52:23.773Z,87.30
2022-11-27T09:55:01.752Z,85.87
2022-11-27T09:57:33.348Z,87.23
2022-11-27T10:00:07.402Z,87.45
2022-11-27T10:02:35.431Z,87.68
2022-11-27T10:05:15.462Z,89.31
2022-11-27T10:08:10.077Z,88.84
2022-11-27T10:11:01.769Z,87.38
2022-11-27T10:13:31.341Z,88.48
2022-11-27T10:16:09.341Z,90.20
2022-11-27T10:18:46.702Z,90.19
2022-11-27T10:21:40.931Z,89.99
2022-11-27T10:24:19.244Z,88.90
2022-11-27T10:26:48.558Z,89.24
2022-11-27T10:29:30.904Z,87.08
2022-11-27T10:32:04.320Z,87.06
2022-11-27T10:34:30.915Z,86.92
2022-11-27T10:37:01.025Z,86.57
2022-11-27T10:39:41.781Z,86.38
2022-11-27T10:42:21.060Z,86.44
2022-11-27T10:44:53.679Z,87.39
2022-11-27T10:47:23.238Z,87.29
2022-11-27T10:49:50.072Z,86.79
2022-11-27T10:52:19.343Z,86.93
2022-11-27T10:54:53.116Z,87.15
2022-11-27T10:57:22.649Z,87.50
2022-11-27T10:59:55.339Z,88.17
2022-11-27T11:02:28.076Z,87.94
2022-11-27T11:05:24.226Z,87.98
2022-11-27T11:07:41.755Z,88.27
2022-11-27T11:10:26.484Z,87.04
2022-11-27T11:13:11.792Z,89.29
2022-11-27T11:16:04.793Z,89.59
2022-11-27T11:18:35.149Z,89.05
2022-11-27T11:21:07.181Z,88.68
2022-11-27T11:23:40.380Z,87.05
2022-11-27T11:26:32.384Z,87.96
2022-11-27T11:29:02.129Z,88.09
2022-11-27T11:31:37.012Z,88.53
2022-11-27T11:34:23.958Z,87.94
2022-11-27T11:36:58.748Z,89.09
2022-11-27T11:39:31.982Z,90.03
2022-11-27T11:41:59.087Z,88.59
2022-11-27T11:44:35.577Z,87.56
2022-11-27T11:47:02.432Z,87.72
2022-11-27T11:49:33.490Z,87.23
2022-11-27T11:52:22.235Z,87.92
2022-11-27T11:54:49.690Z,88.28
2022-11-27T11:57:25.562Z,87.02
2022-11-27T11:59:52.074Z,86.91
2022-11-27T12:02:50.359Z,85.70
2022-11-27T12:05:26.040Z,83.70
2022-11-27T12:08:15.521Z,84.65
2022-11-27T12:11:03.258Z,85.69
2022-11-27T12:13:54.569Z,83.69
2022-11-27T12:16:50.514Z,83.42
2022-11-27T12:19:25.952Z,83.99
2022-11-27T12:22:37.415Z,83.12
2022-11-27T12:25:10.086Z,83.54
2022-11-27T12:28:03.446Z,83.87
2022-11-27T12:30:58.907Z,85.67
2022-11-27T12:33:38.318Z,85.45
2022-11-27T12:36:18.193Z,85.04
2022-11-27T12:38:59.980Z,85.74
2022-11-27T12:41:59.148Z,85.96
2022-11-27T12:44:51.589Z,84.91
2022-11-27T12:47:18.214Z,86.05
2022-11-27T12:49:49.379Z,86.01
2022-11-27T12:52:22.581Z,85.16
2022-11-27T12:54:58.702Z,85.18
2022-11-27T12:57:39.526Z,85.14
2022-11-27T13:00:14.711Z,84.23
2022-11-27T13:02:49.966Z,84.32
2022-11-27T13:05:22.835Z,84.46
2022-11-27T13:07:55.767Z,84.25
2022-11-27T13:10:38.371Z,85.62
2022-11-27T13:13:10.331Z,84.79
2022-11-27T13:15:54.917Z,84.92
2022-11-27T13:18:30.419Z,84.19
2022-11-27T13:21:01.285Z,83.56
2022-11-27T13:23:32.935Z,84.95
2022-11-27T13:26:05.489Z,84.98
2022-11-27T13:28:46.431Z,85.12
2022-11-27T13:31:27.157Z,85.14
2022-11-27T13:34:00.561Z,84.44
2022-11-27T13:36:37.241Z,84.86
2022-11-27T13:39:04.024Z,86.02
2022-11-27T13:41:40.299Z,86.63
2022-11-27T13:44:27.921Z,87.44
2022-11-27T13:47:04.462Z,87.04
2022-11-27T13:49:34.070Z,86.39
2022-11-27T13:52:11.761Z,87.29
2022-11-27T13:54:39.413Z,88.35
2022-11-27T13:57:17.618Z,88.63
2022-11-27T14:00:00.064Z,88.81
2022-11-27T14:02:44.226Z,88.81
2022-11-27T14:05:12.951Z,89.21
2022-11-27T14:07:43.445Z,89.73
2022-11-27T14:10:15.722Z,88.33
2022-11-27T14:12:54.831Z,89.03
2022-11-27T14:15:25.526Z,88.80
2022-11-27T14:18:04.440Z,89.59
2022-11-27T14:20:35.144Z,89.02
2022-11-27T14:23:17.277Z,89.41
2022-11-27T14:25:43.910Z,89.07
2022-11-27T14:28:26.036Z,89.53
2022-11-27T14:30:56.949Z,89.41
2022-11-27T14:33:28.464Z,89.89
2022-11-27T14:35:57.337Z,89.69
2022-11-27T14:38:25.688Z,88.13
2022-11-27T14:40:54.166Z,88.94
2022-11-27T14:43:28.277Z,89.33
2022-11-27T14:46:01.409Z,89.68
2022-11-27T14:48:34.411Z,90.33
2022-11-27T14:51:01.664Z,90.34
2022-11-27T14:53:29.303Z,90.61
2022-11-27T14:55:58.486Z,90.06
2022-11-27T14:58:28.542Z,90.17
2022-11-27T15:01:07.200Z,88.59
2022-11-27T15:03:34.626Z,89.11
2022-11-27T15:06:07.619Z,89.75
2022-11-27T15:08:37.850Z,90.72
2022-11-27T15:11:05.907Z,90.02
2022-11-27T15:13:36.677Z,89.83
2022-11-27T15:16:14.801Z,89.62
2022-11-27T15:18:43.161Z,91.27
2022-11-27T15:21:12.864Z,90.83
2022-11-27T15:23:46.261Z,89.57
2022-11-27T15:26:28.587Z,89.06
2022-11-27T15:28:57.446Z,88.88
2022-11-27T15:31:33.237Z,88.84
2022-11-27T15:34:13.576Z,88.86
2022-11-27T15:37:03.888Z,89.52
2022-11-27T15:39:51.807Z,89.41
2022-11-27T15:42:20.061Z,89.81
2022-11-27T15:44:48.083Z,89.66
2022-11-27T15:47:33.195Z,90.29
2022-11-27T15:50:00.197Z,90.75
2022-11-27T15:52:27.520Z,91.44
2022-11-27T15:54:55.358Z,90.98
2022-11-27T15:57:22.185Z,90.87
2022-11-27T15:59:48.871Z,91.60
2022-11-27T16:02:18.033Z,91.49
2022-11-27T16:04:45.197Z,91.85
2022-11-27T16:07:11.898Z,91.50
2022-11-27T16:09:39.773Z,91.01
2022-11-27T16:12:06.919Z,89.85
2022-11-27T16:14:33.571Z,90.13
2022-11-27T16:17:01.568Z,90.11
2022-11-27T16:19:28.776Z,89.92
2022-11-27T16:21:55.484Z,90.64
2022-11-27T16:24:22.001Z,91.21
2022-11-27T16:26:48.699Z,91.19
2022-11-27T16:29:15.412Z,90.84
2022-11-27T16:31:42.065Z,91.04
2022-11-27T16:34:11.590Z,91.66
2022-11-27T16:36:41.439Z,91.92
2022-11-27T16:39:08.068Z,92.36
2022-11-27T16:41:34.800Z,91.83
2022-11-27T16:44:01.512Z,92.02
2022-11-27T16:46:30.390Z,93.13
2022-11-27T16:48:59.224Z,95.75
2022-11-27T16:51:28.762Z,96.50
2022-11-27T16:53:57.208Z,96.80
2022-11-27T16:56:26.371Z,97.41
2022-11-27T16:58:56.736Z,96.15
2022-11-27T17:01:29.967Z,95.17
2022-11-27T17:03:57.396Z,95.36
2022-11-27T17:06:30.038Z,95.65
2022-11-27T17:08:59.176Z,94.47
2022-11-27T17:11:28.959Z,93.65
2022-11-27T17:14:01.476Z,92.66
2022-11-27T17:16:28.787Z,92.19
2022-11-27T17:18:55.647Z,91.74
2022-11-27T17:21:25.322Z,92.13
2022-11-27T17:23:55.277Z,92.17
2022-11-27T17:26:23.695Z,92.59
2022-11-27T17:28:50.693Z,92.80
2022-11-27T17:31:19.742Z,91.56
2022-11-27T17:33:47.568Z,91.21
2022-11-27T17:36:15.749Z,90.75
2022-11-27T17:38:42.328Z,90.94
2022-11-27T17:41:11.509Z,91.12
2022-11-27T17:43:39.453Z,90.09
2022-11-27T17:46:21.577Z,89.90
2022-11-27T17:48:48.203Z,89.37
2022-11-27T17:51:15.125Z,89.63
2022-11-27T17:53:41.713Z,89.63
2022-11-27T17:56:10.706Z,90.10
2022-11-27T17:58:37.801Z,90.85
2022-11-27T18:01:06.172Z,90.64
2022-11-27T18:03:33.850Z,90.72
2022-11-27T18:06:05.223Z,90.82
2022-11-27T18:08:32.858Z,90.71
2022-11-27T18:11:06.770Z,91.29
2022-11-27T18:13:33.543Z,91.66
2022-11-27T18:16:24.723Z,91.96
2022-11-27T18:18:51.713Z,91.65
2022-11-27T18:21:20.614Z,91.56
2022-11-27T18:24:21.410Z,91.02
2022-11-27T18:27:06.599Z,91.43
2022-11-27T18:29:23.588Z,91.05
2022-11-27T18:31:51.180Z,91.47
2022-11-27T18:34:18.155Z,91.80
2022-11-27T18:36:46.024Z,92.57
2022-11-27T18:39:13.075Z,92.73
2022-11-27T18:41:40.215Z,93.05
2022-11-27T18:44:06.803Z,91.34
2022-11-27T18:46:33.835Z,91.10
2022-11-27T18:49:00.451Z,91.50
2022-11-27T18:51:27.118Z,91.77
2022-11-27T18:53:54.693Z,91.50
2022-11-27T18:56:27.150Z,92.09
2022-11-27T18:58:54.221Z,92.90
2022-11-27T19:01:23.798Z,92.13
2022-11-27T19:03:50.772Z,92.64
2022-11-27T19:06:20.066Z,92.50
2022-11-27T19:08:47.184Z,93.03
2022-11-27T19:11:17.931Z,93.31
2022-11-27T19:13:45.702Z,93.08
2022-11-27T19:16:15.514Z,92.58
2022-11-27T19:18:43.023Z,91.64
2022-11-27T19:21:14.490Z,91.84
2022-11-27T19:23:41.514Z,91.59
2022-11-27T19:26:14.190Z,92.47
2022-11-27T19:28:41.320Z,92.72
2022-11-27T19:31:10.693Z,92.79
2022-11-27T19:33:37.885Z,92.30
2022-11-27T19:36:08.661Z,92.11
2022-11-27T19:38:36.167Z,92.71
2022-11-27T19:41:04.419Z,92.69
2022-11-27T19:43:31.150Z,93.42
2022-11-27T19:45:58.290Z,93.93
2022-11-27T19:48:24.954Z,92.72
2022-11-27T19:50:52.003Z,93.15
2022-11-27T19:53:18.974Z,93.02
2022-11-27T19:55:53.361Z,93.09
2022-11-27T19:58:20.000Z,92.73
2022-11-27T20:00:46.889Z,92.81
2022-11-27T20:03:13.502Z,92.39
2022-11-27T20:05:40.099Z,92.92
2022-11-27T20:08:06.710Z,92.95
2022-11-27T20:10:33.314Z,93.31
2022-11-27T20:13:01.637Z,92.00
2022-11-27T20:15:28.759Z,92.14
2022-11-27T20:17:55.684Z,91.88
2022-11-27T20:20:22.272Z,92.20
2022-11-27T20:22:50.353Z,92.51
2022-11-27T20:25:20.009Z,92.83
2022-11-27T20:27:47.190Z,93.30
2022-11-27T20:30:13.987Z,93.78
2022-11-27T20:32:40.744Z,93.74
2022-11-27T20:35:07.750Z,92.76
2022-11-27T20:37:35.048Z,93.29
2022-11-27T20:40:01.767Z,93.78
2022-11-27T20:42:28.439Z,93.85
2022-11-27T20:44:55.023Z,94.13
2022-11-27T20:47:21.590Z,93.30
2022-11-27T20:49:48.233Z,93.69
2022-11-27T20:52:14.970Z,93.61
2022-11-27T20:54:41.585Z,94.66
2022-11-27T20:57:14.047Z,93.22
2022-11-27T20:59:41.736Z,93.47
2022-11-27T21:02:12.262Z,93.14
2022-11-27T21:04:39.010Z,93.10
2022-11-27T21:07:05.708Z,92.87
2022-11-27T21:09:32.730Z,92.61
2022-11-27T21:11:59.667Z,91.70
2022-11-27T21:14:26.279Z,91.64
2022-11-27T21:16:53.977Z,91.77
2022-11-27T21:19:24.447Z,91.84
2022-11-27T21:21:52.380Z,91.95
2022-11-27T21:24:20.492Z,91.00
2022-11-27T21:26:48.301Z,91.02
2022-11-27T21:29:15.632Z,91.38
2022-11-27T21:31:46.388Z,90.94
2022-11-27T21:34:16.281Z,91.29
2022-11-27T21:36:42.822Z,91.51
2022-11-27T21:39:12.144Z,91.24
2022-11-27T21:41:38.699Z,89.75
2022-11-27T21:44:05.595Z,89.68
2022-11-27T21:46:32.475Z,89.93
2022-11-27T21:49:00.970Z,89.22
2022-11-27T21:51:29.226Z,89.92
2022-11-27T21:53:57.079Z,89.01
2022-11-27T21:56:26.341Z,89.23
2022-11-27T21:58:52.974Z,89.14
2022-11-27T22:01:22.325Z,89.62
2022-11-27T22:03:51.566Z,89.55
2022-11-27T22:06:18.898Z,88.93
2022-11-27T22:08:47.181Z,89.39
2022-11-27T22:11:28.864Z,89.34
2022-11-27T22:13:56.396Z,89.28
2022-11-27T22:16:24.509Z,89.69
2022-11-27T22:18:53.761Z,88.78
2022-11-27T22:21:20.437Z,88.88
2022-11-27T22:23:47.174Z,89.83
2022-11-27T22:26:19.285Z,91.28
2022-11-27T22:28:46.419Z,91.78
2022-11-27T22:31:21.687Z,92.41
2022-11-27T22:33:48.733Z,92.31
2022-11-27T22:36:17.027Z,91.78
2022-11-27T22:38:45.092Z,91.85
2022-11-27T22:41:12.360Z,91.36
2022-11-27T22:43:39.549Z,88.58
2022-11-27T22:46:08.729Z,87.65
2022-11-27T22:48:35.351Z,87.75
2022-11-27T22:51:02.091Z,88.05
2022-11-27T22:53:28.857Z,87.75
2022-11-27T22:55:55.705Z,88.58
2022-11-27T22:58:22.749Z,88.17
2022-11-27T23:00:56.506Z,88.67
2022-11-27T23:03:23.583Z,87.53
2022-11-27T23:05:50.455Z,88.16
2022-11-27T23:08:18.956Z,88.56
2022-11-27T23:10:47.382Z,88.30
2022-11-27T23:13:15.229Z,87.15
2022-11-27T23:15:42.679Z,88.34
2022-11-27T23:18:09.798Z,87.72
2022-11-27T23:20:43.651Z,86.96
2022-11-27T23:23:11.112Z,86.52
2022-11-27T23:25:38.699Z,86.12
2022-11-27T23:28:05.688Z,85.83
2022-11-27T23:30:33.783Z,85.54
2022-11-27T23:33:00.457Z,84.67
2022-11-27T23:35:27.167Z,85.89
2022-11-27T23:37:53.823Z,86.08
2022-11-27T23:40:20.498Z,84.74
2022-11-27T23:42:47.168Z,85.68
2022-11-27T23:45:13.824Z,85.84
2022-11-27T23:47:40.590Z,85.10
2022-11-27T23:50:07.835Z,86.12
2022-11-27T23:52:34.597Z,86.23
2022-11-27T23:55:01.442Z,86.37
2022-11-27T23:57:28.069Z,86.47
2022-11-27T23:59:54.619Z,86.51
